sensor_id;sensor_type;location;lat;lon;timestamp;temperature;humidity
26655;DHT22;14278;50.784;4.630;2023-04-03T00:01:48;4.80;99.90
26655;DHT22;14278;50.784;4.630;2023-04-03T00:04:13;4.90;99.90
26655;DHT22;14278;50.784;4.630;2023-04-03T00:06:42;4.90;99.90
26655;DHT22;14278;50.784;4.630;2023-04-03T00:09:09;4.80;99.90
26655;DHT22;14278;50.784;4.630;2023-04-03T00:11:34;4.70;99.90
26655;DHT22;14278;50.784;4.630;2023-04-03T00:14:00;5.00;99.90
26655;DHT22;14278;50.784;4.630;2023-04-03T00:16:26;5.00;99.90
26655;DHT22;14278;50.784;4.630;2023-04-03T00:18:52;4.90;99.90
26655;DHT22;14278;50.784;4.630;2023-04-03T00:21:19;4.80;99.90
26655;DHT22;14278;50.784;4.630;2023-04-03T00:23:44;4.60;99.90
26655;DHT22;14278;50.784;4.630;2023-04-03T00:26:10;4.50;99.90
26655;DHT22;14278;50.784;4.630;2023-04-03T00:28:36;4.40;99.90
26655;DHT22;14278;50.784;4.630;2023-04-03T00:31:03;4.40;99.90
26655;DHT22;14278;50.784;4.630;2023-04-03T00:33:29;4.40;99.90
26655;DHT22;14278;50.784;4.630;2023-04-03T00:35:55;4.70;99.90
26655;DHT22;14278;50.784;4.630;2023-04-03T00:38:21;4.40;99.90
26655;DHT22;14278;50.784;4.630;2023-04-03T00:40:48;4.30;99.90
26655;DHT22;14278;50.784;4.630;2023-04-03T00:43:34;4.30;99.90
26655;DHT22;14278;50.784;4.630;2023-04-03T00:46:01;4.40;99.90
26655;DHT22;14278;50.784;4.630;2023-04-03T00:48:59;4.50;99.90
26655;DHT22;14278;50.784;4.630;2023-04-03T00:51:24;4.40;99.90
26655;DHT22;14278;50.784;4.630;2023-04-03T00:53:56;4.50;99.90
26655;DHT22;14278;50.784;4.630;2023-04-03T00:56:25;4.50;99.90
26655;DHT22;14278;50.784;4.630;2023-04-03T00:59:04;4.50;99.90
26655;DHT22;14278;50.784;4.630;2023-04-03T01:01:31;4.40;99.90
26655;DHT22;14278;50.784;4.630;2023-04-03T01:04:04;4.30;99.90
26655;DHT22;14278;50.784;4.630;2023-04-03T01:06:36;4.50;99.90
26655;DHT22;14278;50.784;4.630;2023-04-03T01:09:03;4.50;99.90
26655;DHT22;14278;50.784;4.630;2023-04-03T01:11:29;4.60;99.90
26655;DHT22;14278;50.784;4.630;2023-04-03T01:13:55;4.50;99.90
26655;DHT22;14278;50.784;4.630;2023-04-03T01:16:21;4.40;99.90
26655;DHT22;14278;50.784;4.630;2023-04-03T01:18:48;4.50;99.90
26655;DHT22;14278;50.784;4.630;2023-04-03T01:27:09;4.30;99.90
26655;DHT22;14278;50.784;4.630;2023-04-03T01:29:36;4.00;99.90
26655;DHT22;14278;50.784;4.630;2023-04-03T01:32:03;3.90;99.90
26655;DHT22;14278;50.784;4.630;2023-04-03T01:34:30;4.10;99.90
26655;DHT22;14278;50.784;4.630;2023-04-03T01:36:57;4.00;99.90
26655;DHT22;14278;50.784;4.630;2023-04-03T01:39:23;4.10;99.90
26655;DHT22;14278;50.784;4.630;2023-04-03T01:41:49;4.30;99.90
26655;DHT22;14278;50.784;4.630;2023-04-03T01:44:15;4.30;99.90
26655;DHT22;14278;50.784;4.630;2023-04-03T01:46:41;4.40;99.90
26655;DHT22;14278;50.784;4.630;2023-04-03T01:49:08;4.40;99.90
26655;DHT22;14278;50.784;4.630;2023-04-03T01:51:34;4.70;99.90
26655;DHT22;14278;50.784;4.630;2023-04-03T01:54:00;4.30;99.90
26655;DHT22;14278;50.784;4.630;2023-04-03T01:56:26;4.40;99.90
26655;DHT22;14278;50.784;4.630;2023-04-03T01:58:52;4.50;99.90
26655;DHT22;14278;50.784;4.630;2023-04-03T02:01:18;4.50;99.90
26655;DHT22;14278;50.784;4.630;2023-04-03T02:03:44;4.60;99.90
26655;DHT22;14278;50.784;4.630;2023-04-03T02:06:10;4.50;99.90
26655;DHT22;14278;50.784;4.630;2023-04-03T02:08:36;4.40;99.90
26655;DHT22;14278;50.784;4.630;2023-04-03T02:11:02;4.20;99.90
26655;DHT22;14278;50.784;4.630;2023-04-03T02:13:28;4.10;99.90
26655;DHT22;14278;50.784;4.630;2023-04-03T02:15:54;4.10;99.90
26655;DHT22;14278;50.784;4.630;2023-04-03T02:18:24;4.10;99.90
26655;DHT22;14278;50.784;4.630;2023-04-03T02:20:50;4.30;99.90
26655;DHT22;14278;50.784;4.630;2023-04-03T02:23:16;4.30;99.90
26655;DHT22;14278;50.784;4.630;2023-04-03T02:25:42;4.10;99.90
26655;DHT22;14278;50.784;4.630;2023-04-03T02:28:08;4.10;99.90
26655;DHT22;14278;50.784;4.630;2023-04-03T02:30:37;4.00;99.90
26655;DHT22;14278;50.784;4.630;2023-04-03T02:33:03;4.20;99.90
26655;DHT22;14278;50.784;4.630;2023-04-03T02:35:29;4.20;99.90
26655;DHT22;14278;50.784;4.630;2023-04-03T02:37:55;4.20;99.90
26655;DHT22;14278;50.784;4.630;2023-04-03T02:40:21;4.30;99.90
26655;DHT22;14278;50.784;4.630;2023-04-03T02:42:47;4.20;99.90
26655;DHT22;14278;50.784;4.630;2023-04-03T02:45:13;3.80;99.90
26655;DHT22;14278;50.784;4.630;2023-04-03T02:47:39;3.50;99.90
26655;DHT22;14278;50.784;4.630;2023-04-03T02:50:05;3.80;99.90
26655;DHT22;14278;50.784;4.630;2023-04-03T02:52:31;3.90;99.90
26655;DHT22;14278;50.784;4.630;2023-04-03T02:54:57;4.00;99.90
26655;DHT22;14278;50.784;4.630;2023-04-03T02:57:23;4.10;99.90
26655;DHT22;14278;50.784;4.630;2023-04-03T02:59:49;3.90;99.90
26655;DHT22;14278;50.784;4.630;2023-04-03T03:02:15;3.90;99.90
26655;DHT22;14278;50.784;4.630;2023-04-03T03:04:41;3.80;99.90
26655;DHT22;14278;50.784;4.630;2023-04-03T03:07:08;3.70;99.90
26655;DHT22;14278;50.784;4.630;2023-04-03T03:09:33;3.60;99.90
26655;DHT22;14278;50.784;4.630;2023-04-03T03:11:59;3.90;99.90
26655;DHT22;14278;50.784;4.630;2023-04-03T03:14:25;3.90;99.90
26655;DHT22;14278;50.784;4.630;2023-04-03T03:16:51;4.00;99.90
26655;DHT22;14278;50.784;4.630;2023-04-03T03:19:17;3.80;99.90
26655;DHT22;14278;50.784;4.630;2023-04-03T03:21:43;3.60;99.90
26655;DHT22;14278;50.784;4.630;2023-04-03T03:24:09;3.50;99.90
26655;DHT22;14278;50.784;4.630;2023-04-03T03:26:35;3.50;99.90
26655;DHT22;14278;50.784;4.630;2023-04-03T03:29:01;3.60;99.90
26655;DHT22;14278;50.784;4.630;2023-04-03T03:31:27;3.30;99.90
26655;DHT22;14278;50.784;4.630;2023-04-03T03:33:53;3.30;99.90
26655;DHT22;14278;50.784;4.630;2023-04-03T03:36:22;3.30;99.90
26655;DHT22;14278;50.784;4.630;2023-04-03T03:38:51;3.30;99.90
26655;DHT22;14278;50.784;4.630;2023-04-03T03:41:17;3.60;99.90
26655;DHT22;14278;50.784;4.630;2023-04-03T03:43:44;3.80;99.90
26655;DHT22;14278;50.784;4.630;2023-04-03T03:46:09;4.00;99.90
26655;DHT22;14278;50.784;4.630;2023-04-03T03:48:36;3.90;99.90
26655;DHT22;14278;50.784;4.630;2023-04-03T03:51:02;3.80;99.90
26655;DHT22;14278;50.784;4.630;2023-04-03T03:53:27;3.80;99.90
26655;DHT22;14278;50.784;4.630;2023-04-03T03:55:54;3.90;99.90
26655;DHT22;14278;50.784;4.630;2023-04-03T03:58:20;3.60;99.90
26655;DHT22;14278;50.784;4.630;2023-04-03T04:00:46;3.40;99.90
26655;DHT22;14278;50.784;4.630;2023-04-03T04:03:12;3.30;99.90
26655;DHT22;14278;50.784;4.630;2023-04-03T04:05:38;3.20;99.90
26655;DHT22;14278;50.784;4.630;2023-04-03T04:08:04;3.10;99.90
26655;DHT22;14278;50.784;4.630;2023-04-03T04:10:30;3.00;99.90
26655;DHT22;14278;50.784;4.630;2023-04-03T04:12:56;3.10;99.90
26655;DHT22;14278;50.784;4.630;2023-04-03T04:15:22;3.20;99.90
26655;DHT22;14278;50.784;4.630;2023-04-03T04:17:48;3.20;99.90
26655;DHT22;14278;50.784;4.630;2023-04-03T04:20:15;3.20;99.90
26655;DHT22;14278;50.784;4.630;2023-04-03T04:22:40;3.30;99.90
26655;DHT22;14278;50.784;4.630;2023-04-03T04:25:06;3.50;99.90
26655;DHT22;14278;50.784;4.630;2023-04-03T04:27:34;3.20;99.90
26655;DHT22;14278;50.784;4.630;2023-04-03T04:29:59;3.00;99.90
26655;DHT22;14278;50.784;4.630;2023-04-03T04:32:26;2.90;99.90
26655;DHT22;14278;50.784;4.630;2023-04-03T04:34:52;3.00;99.90
26655;DHT22;14278;50.784;4.630;2023-04-03T04:37:18;3.00;99.90
26655;DHT22;14278;50.784;4.630;2023-04-03T04:39:44;3.10;99.90
26655;DHT22;14278;50.784;4.630;2023-04-03T04:42:10;3.30;99.90
26655;DHT22;14278;50.784;4.630;2023-04-03T04:44:39;3.30;99.90
26655;DHT22;14278;50.784;4.630;2023-04-03T04:47:04;3.60;99.90
26655;DHT22;14278;50.784;4.630;2023-04-03T04:49:30;3.70;99.90
26655;DHT22;14278;50.784;4.630;2023-04-03T04:51:57;3.80;99.90
26655;DHT22;14278;50.784;4.630;2023-04-03T04:54:23;3.90;99.90
26655;DHT22;14278;50.784;4.630;2023-04-03T04:56:48;4.10;99.90
26655;DHT22;14278;50.784;4.630;2023-04-03T04:59:14;4.00;99.90
26655;DHT22;14278;50.784;4.630;2023-04-03T05:01:40;3.50;99.90
26655;DHT22;14278;50.784;4.630;2023-04-03T05:04:06;3.50;99.90
26655;DHT22;14278;50.784;4.630;2023-04-03T05:06:32;3.70;99.90
26655;DHT22;14278;50.784;4.630;2023-04-03T05:09:00;3.50;99.90
26655;DHT22;14278;50.784;4.630;2023-04-03T05:11:27;3.40;99.90
26655;DHT22;14278;50.784;4.630;2023-04-03T05:13:52;3.40;99.90
26655;DHT22;14278;50.784;4.630;2023-04-03T05:16:19;3.40;99.90
26655;DHT22;14278;50.784;4.630;2023-04-03T05:18:45;3.10;99.90
26655;DHT22;14278;50.784;4.630;2023-04-03T05:21:11;2.90;99.90
26655;DHT22;14278;50.784;4.630;2023-04-03T05:23:40;2.70;99.90
26655;DHT22;14278;50.784;4.630;2023-04-03T05:26:06;2.70;99.90
26655;DHT22;14278;50.784;4.630;2023-04-03T05:28:32;2.80;99.90
26655;DHT22;14278;50.784;4.630;2023-04-03T05:30:59;3.00;99.90
26655;DHT22;14278;50.784;4.630;2023-04-03T05:33:25;3.20;99.90
26655;DHT22;14278;50.784;4.630;2023-04-03T05:35:52;3.40;99.90
26655;DHT22;14278;50.784;4.630;2023-04-03T05:38:18;3.80;99.90
26655;DHT22;14278;50.784;4.630;2023-04-03T05:40:47;4.00;99.90
26655;DHT22;14278;50.784;4.630;2023-04-03T05:43:13;4.00;99.90
26655;DHT22;14278;50.784;4.630;2023-04-03T05:45:38;4.10;99.90
26655;DHT22;14278;50.784;4.630;2023-04-03T05:48:04;4.40;99.90
26655;DHT22;14278;50.784;4.630;2023-04-03T05:50:30;4.50;99.90
26655;DHT22;14278;50.784;4.630;2023-04-03T05:52:58;5.20;99.90
26655;DHT22;14278;50.784;4.630;2023-04-03T05:55:27;5.60;99.90
26655;DHT22;14278;50.784;4.630;2023-04-03T05:57:53;6.40;99.90
26655;DHT22;14278;50.784;4.630;2023-04-03T06:00:19;7.10;99.90
26655;DHT22;14278;50.784;4.630;2023-04-03T06:02:46;7.70;99.90
26655;DHT22;14278;50.784;4.630;2023-04-03T06:05:13;8.20;99.90
26655;DHT22;14278;50.784;4.630;2023-04-03T06:07:39;8.30;99.90
26655;DHT22;14278;50.784;4.630;2023-04-03T06:10:11;8.40;99.90
26655;DHT22;14278;50.784;4.630;2023-04-03T06:12:38;8.90;99.90
26655;DHT22;14278;50.784;4.630;2023-04-03T06:15:04;10.00;99.90
26655;DHT22;14278;50.784;4.630;2023-04-03T06:17:30;11.50;99.90
26655;DHT22;14278;50.784;4.630;2023-04-03T06:19:56;13.30;99.90
26655;DHT22;14278;50.784;4.630;2023-04-03T06:22:23;15.10;99.90
26655;DHT22;14278;50.784;4.630;2023-04-03T06:24:51;16.90;99.90
26655;DHT22;14278;50.784;4.630;2023-04-03T06:27:16;18.70;99.90
26655;DHT22;14278;50.784;4.630;2023-04-03T06:29:43;19.70;99.90
26655;DHT22;14278;50.784;4.630;2023-04-03T06:32:10;21.10;99.90
26655;DHT22;14278;50.784;4.630;2023-04-03T06:34:37;22.30;97.70
26655;DHT22;14278;50.784;4.630;2023-04-03T06:37:03;22.60;93.10
26655;DHT22;14278;50.784;4.630;2023-04-03T06:39:29;24.00;93.70
26655;DHT22;14278;50.784;4.630;2023-04-03T06:41:55;25.10;91.40
26655;DHT22;14278;50.784;4.630;2023-04-03T06:44:21;26.00;87.30
26655;DHT22;14278;50.784;4.630;2023-04-03T06:46:47;26.40;83.50
26655;DHT22;14278;50.784;4.630;2023-04-03T06:49:14;26.80;79.20
26655;DHT22;14278;50.784;4.630;2023-04-03T06:51:40;27.40;77.20
26655;DHT22;14278;50.784;4.630;2023-04-03T06:54:07;27.30;75.60
26655;DHT22;14278;50.784;4.630;2023-04-03T06:56:33;28.10;73.00
26655;DHT22;14278;50.784;4.630;2023-04-03T06:59:00;27.80;72.80
26655;DHT22;14278;50.784;4.630;2023-04-03T07:01:27;27.00;69.70
26655;DHT22;14278;50.784;4.630;2023-04-03T07:03:54;24.80;68.60
26655;DHT22;14278;50.784;4.630;2023-04-03T07:06:20;18.70;79.40
26655;DHT22;14278;50.784;4.630;2023-04-03T07:08:47;15.50;90.90
26655;DHT22;14278;50.784;4.630;2023-04-03T07:11:17;17.80;92.50
26655;DHT22;14278;50.784;4.630;2023-04-03T07:13:43;18.10;91.00
26655;DHT22;14278;50.784;4.630;2023-04-03T07:16:09;14.90;95.00
26655;DHT22;14278;50.784;4.630;2023-04-03T07:18:35;13.80;97.50
26655;DHT22;14278;50.784;4.630;2023-04-03T07:21:01;16.30;97.40
26655;DHT22;14278;50.784;4.630;2023-04-03T07:23:28;17.20;93.60
26655;DHT22;14278;50.784;4.630;2023-04-03T07:25:54;16.80;92.20
26655;DHT22;14278;50.784;4.630;2023-04-03T07:28:21;16.10;95.60
26655;DHT22;14278;50.784;4.630;2023-04-03T07:31:02;16.70;93.90
26655;DHT22;14278;50.784;4.630;2023-04-03T07:33:28;13.90;99.20
26655;DHT22;14278;50.784;4.630;2023-04-03T07:35:55;15.30;99.90
26655;DHT22;14278;50.784;4.630;2023-04-03T07:38:21;12.80;99.90
26655;DHT22;14278;50.784;4.630;2023-04-03T07:40:49;15.10;99.90
26655;DHT22;14278;50.784;4.630;2023-04-03T07:43:18;16.40;97.50
26655;DHT22;14278;50.784;4.630;2023-04-03T07:45:44;15.60;98.30
26655;DHT22;14278;50.784;4.630;2023-04-03T07:48:11;15.00;98.80
26655;DHT22;14278;50.784;4.630;2023-04-03T07:50:40;15.30;98.10
26655;DHT22;14278;50.784;4.630;2023-04-03T07:53:06;15.20;98.10
26655;DHT22;14278;50.784;4.630;2023-04-03T07:55:33;14.00;99.50
26655;DHT22;14278;50.784;4.630;2023-04-03T07:58:02;13.50;99.90
26655;DHT22;14278;50.784;4.630;2023-04-03T08:00:29;13.90;99.90
26655;DHT22;14278;50.784;4.630;2023-04-03T08:02:55;13.50;99.90
26655;DHT22;14278;50.784;4.630;2023-04-03T08:05:21;11.70;99.90
26655;DHT22;14278;50.784;4.630;2023-04-03T08:07:47;11.00;99.90
26655;DHT22;14278;50.784;4.630;2023-04-03T08:10:16;11.20;99.90
26655;DHT22;14278;50.784;4.630;2023-04-03T08:12:42;10.50;99.90
26655;DHT22;14278;50.784;4.630;2023-04-03T08:15:10;10.70;99.90
26655;DHT22;14278;50.784;4.630;2023-04-03T08:17:36;11.30;99.90
26655;DHT22;14278;50.784;4.630;2023-04-03T08:20:06;11.00;99.90
26655;DHT22;14278;50.784;4.630;2023-04-03T08:22:33;10.60;99.90
26655;DHT22;14278;50.784;4.630;2023-04-03T08:24:59;10.70;99.90
26655;DHT22;14278;50.784;4.630;2023-04-03T08:27:26;10.70;99.90
26655;DHT22;14278;50.784;4.630;2023-04-03T08:29:52;11.10;99.90
26655;DHT22;14278;50.784;4.630;2023-04-03T08:32:18;11.70;99.90
26655;DHT22;14278;50.784;4.630;2023-04-03T08:34:44;11.70;99.90
26655;DHT22;14278;50.784;4.630;2023-04-03T08:37:12;11.50;99.90
26655;DHT22;14278;50.784;4.630;2023-04-03T08:39:38;9.60;99.90
26655;DHT22;14278;50.784;4.630;2023-04-03T08:42:32;10.50;99.90
26655;DHT22;14278;50.784;4.630;2023-04-03T08:45:10;11.20;99.90
26655;DHT22;14278;50.784;4.630;2023-04-03T08:47:55;13.60;99.90
26655;DHT22;14278;50.784;4.630;2023-04-03T08:50:37;12.10;99.90
26655;DHT22;14278;50.784;4.630;2023-04-03T08:53:06;11.70;99.90
26655;DHT22;14278;50.784;4.630;2023-04-03T08:55:49;12.30;99.90
26655;DHT22;14278;50.784;4.630;2023-04-03T09:03:23;9.50;99.90
26655;DHT22;14278;50.784;4.630;2023-04-03T09:08:26;10.30;99.90
26655;DHT22;14278;50.784;4.630;2023-04-03T09:13:56;10.90;99.90
26655;DHT22;14278;50.784;4.630;2023-04-03T09:16:56;11.20;99.90
26655;DHT22;14278;50.784;4.630;2023-04-03T09:19:36;11.70;99.90
26655;DHT22;14278;50.784;4.630;2023-04-03T09:22:17;11.40;99.90
26655;DHT22;14278;50.784;4.630;2023-04-03T09:24:48;10.80;99.90
26655;DHT22;14278;50.784;4.630;2023-04-03T09:27:16;10.60;99.90
26655;DHT22;14278;50.784;4.630;2023-04-03T09:29:43;11.00;99.90
26655;DHT22;14278;50.784;4.630;2023-04-03T09:32:48;10.80;99.90
26655;DHT22;14278;50.784;4.630;2023-04-03T09:40:42;10.30;99.90
26655;DHT22;14278;50.784;4.630;2023-04-03T09:43:30;10.00;99.90
26655;DHT22;14278;50.784;4.630;2023-04-03T09:48:56;10.90;99.90
26655;DHT22;14278;50.784;4.630;2023-04-03T09:51:29;11.30;99.90
26655;DHT22;14278;50.784;4.630;2023-04-03T09:53:55;11.80;99.90
26655;DHT22;14278;50.784;4.630;2023-04-03T09:56:29;11.90;99.90
26655;DHT22;14278;50.784;4.630;2023-04-03T10:04:16;11.10;99.90
26655;DHT22;14278;50.784;4.630;2023-04-03T10:12:09;12.20;99.90
26655;DHT22;14278;50.784;4.630;2023-04-03T10:14:54;12.00;99.90
26655;DHT22;14278;50.784;4.630;2023-04-03T10:22:45;12.00;99.90
26655;DHT22;14278;50.784;4.630;2023-04-03T10:25:30;12.00;99.90
26655;DHT22;14278;50.784;4.630;2023-04-03T10:37:08;11.50;99.90
26655;DHT22;14278;50.784;4.630;2023-04-03T10:39:45;12.10;99.90
26655;DHT22;14278;50.784;4.630;2023-04-03T10:42:34;12.20;99.90
26655;DHT22;14278;50.784;4.630;2023-04-03T10:45:38;12.30;99.90
26655;DHT22;14278;50.784;4.630;2023-04-03T10:56:41;14.40;99.90
26655;DHT22;14278;50.784;4.630;2023-04-03T10:59:28;15.20;99.90
26655;DHT22;14278;50.784;4.630;2023-04-03T11:02:00;14.00;99.90
26655;DHT22;14278;50.784;4.630;2023-04-03T11:04:37;13.50;99.90
26655;DHT22;14278;50.784;4.630;2023-04-03T11:07:29;14.30;99.90
26655;DHT22;14278;50.784;4.630;2023-04-03T11:10:21;14.40;99.90
26655;DHT22;14278;50.784;4.630;2023-04-03T11:15:33;14.40;99.90
26655;DHT22;14278;50.784;4.630;2023-04-03T11:18:10;15.70;99.90
26655;DHT22;14278;50.784;4.630;2023-04-03T11:20:37;15.40;99.90
26655;DHT22;14278;50.784;4.630;2023-04-03T11:23:24;15.10;99.90
26655;DHT22;14278;50.784;4.630;2023-04-03T11:26:01;14.60;99.90
26655;DHT22;14278;50.784;4.630;2023-04-03T11:28:30;13.60;99.90
26655;DHT22;14278;50.784;4.630;2023-04-03T11:36:22;15.30;99.90
26655;DHT22;14278;50.784;4.630;2023-04-03T11:38:53;13.70;99.90
26655;DHT22;14278;50.784;4.630;2023-04-03T11:41:31;13.00;99.90
26655;DHT22;14278;50.784;4.630;2023-04-03T11:44:13;13.70;99.90
26655;DHT22;14278;50.784;4.630;2023-04-03T11:46:53;14.70;99.40
26655;DHT22;14278;50.784;4.630;2023-04-03T12:00:46;14.10;98.90
26655;DHT22;14278;50.784;4.630;2023-04-03T12:05:55;14.60;98.20
26655;DHT22;14278;50.784;4.630;2023-04-03T12:08:29;14.60;99.30
26655;DHT22;14278;50.784;4.630;2023-04-03T12:16:27;12.40;98.50
26655;DHT22;14278;50.784;4.630;2023-04-03T12:18:54;12.20;99.10
26655;DHT22;14278;50.784;4.630;2023-04-03T12:32:54;11.30;99.20
26655;DHT22;14278;50.784;4.630;2023-04-03T12:35:47;11.20;99.90
26655;DHT22;14278;50.784;4.630;2023-04-03T12:41:23;11.50;99.80
26655;DHT22;14278;50.784;4.630;2023-04-03T12:46:37;11.80;99.90
26655;DHT22;14278;50.784;4.630;2023-04-03T12:49:30;11.90;98.60
26655;DHT22;14278;50.784;4.630;2023-04-03T12:51:58;11.70;98.30
26655;DHT22;14278;50.784;4.630;2023-04-03T12:54:37;11.50;97.80
26655;DHT22;14278;50.784;4.630;2023-04-03T12:57:18;11.60;97.40
26655;DHT22;14278;50.784;4.630;2023-04-03T12:59:45;11.40;98.10
26655;DHT22;14278;50.784;4.630;2023-04-03T13:04:46;11.30;97.00
26655;DHT22;14278;50.784;4.630;2023-04-03T13:07:29;11.30;97.60
26655;DHT22;14278;50.784;4.630;2023-04-03T13:10:12;11.10;96.60
26655;DHT22;14278;50.784;4.630;2023-04-03T13:12:47;11.40;96.60
26655;DHT22;14278;50.784;4.630;2023-04-03T13:15:24;10.80;96.30
26655;DHT22;14278;50.784;4.630;2023-04-03T13:17:51;10.80;97.10
26655;DHT22;14278;50.784;4.630;2023-04-03T13:20:27;10.60;97.20
26655;DHT22;14278;50.784;4.630;2023-04-03T13:23:02;10.60;97.70
26655;DHT22;14278;50.784;4.630;2023-04-03T13:25:35;10.50;97.90
26655;DHT22;14278;50.784;4.630;2023-04-03T13:28:04;10.60;99.40
26655;DHT22;14278;50.784;4.630;2023-04-03T13:30:36;11.00;99.90
26655;DHT22;14278;50.784;4.630;2023-04-03T13:33:06;10.70;96.20
26655;DHT22;14278;50.784;4.630;2023-04-03T13:40:51;10.60;96.40
26655;DHT22;14278;50.784;4.630;2023-04-03T13:43:24;10.50;96.30
26655;DHT22;14278;50.784;4.630;2023-04-03T13:48:22;10.80;97.90
26655;DHT22;14278;50.784;4.630;2023-04-03T13:51:04;10.70;98.10
26655;DHT22;14278;50.784;4.630;2023-04-03T13:53:33;11.10;98.50
26655;DHT22;14278;50.784;4.630;2023-04-03T13:58:30;11.40;99.30
26655;DHT22;14278;50.784;4.630;2023-04-03T14:01:14;11.30;98.70
26655;DHT22;14278;50.784;4.630;2023-04-03T14:03:54;11.10;97.40
26655;DHT22;14278;50.784;4.630;2023-04-03T14:06:21;11.10;99.10
26655;DHT22;14278;50.784;4.630;2023-04-03T14:08:47;10.80;97.40
26655;DHT22;14278;50.784;4.630;2023-04-03T14:11:23;10.70;97.90
26655;DHT22;14278;50.784;4.630;2023-04-03T14:13:50;10.50;98.90
26655;DHT22;14278;50.784;4.630;2023-04-03T14:16:22;10.60;97.70
26655;DHT22;14278;50.784;4.630;2023-04-03T14:18:50;10.60;99.70
26655;DHT22;14278;50.784;4.630;2023-04-03T14:21:17;10.60;99.90
26655;DHT22;14278;50.784;4.630;2023-04-03T14:23:44;10.90;99.90
26655;DHT22;14278;50.784;4.630;2023-04-03T14:26:19;11.30;99.90
26655;DHT22;14278;50.784;4.630;2023-04-03T14:28:48;11.00;97.70
26655;DHT22;14278;50.784;4.630;2023-04-03T14:31:15;11.00;98.10
26655;DHT22;14278;50.784;4.630;2023-04-03T14:33:41;10.70;99.90
26655;DHT22;14278;50.784;4.630;2023-04-03T14:36:21;10.50;99.40
26655;DHT22;14278;50.784;4.630;2023-04-03T14:38:48;10.40;98.70
26655;DHT22;14278;50.784;4.630;2023-04-03T14:41:18;10.90;99.80
26655;DHT22;14278;50.784;4.630;2023-04-03T14:43:45;10.60;99.20
26655;DHT22;14278;50.784;4.630;2023-04-03T14:46:16;10.40;99.90
26655;DHT22;14278;50.784;4.630;2023-04-03T14:48:44;10.50;99.90
26655;DHT22;14278;50.784;4.630;2023-04-03T14:51:11;10.80;99.90
26655;DHT22;14278;50.784;4.630;2023-04-03T14:53:39;11.00;99.90
26655;DHT22;14278;50.784;4.630;2023-04-03T14:56:18;11.30;99.90
26655;DHT22;14278;50.784;4.630;2023-04-03T14:58:44;11.30;99.90
26655;DHT22;14278;50.784;4.630;2023-04-03T15:01:14;11.00;99.50
26655;DHT22;14278;50.784;4.630;2023-04-03T15:03:40;10.90;99.70
26655;DHT22;14278;50.784;4.630;2023-04-03T15:06:10;11.00;99.90
26655;DHT22;14278;50.784;4.630;2023-04-03T15:08:37;10.80;99.20
26655;DHT22;14278;50.784;4.630;2023-04-03T15:11:03;10.60;98.70
26655;DHT22;14278;50.784;4.630;2023-04-03T15:13:32;10.50;99.30
26655;DHT22;14278;50.784;4.630;2023-04-03T15:15:58;10.50;99.90
26655;DHT22;14278;50.784;4.630;2023-04-03T15:18:26;10.30;99.90
26655;DHT22;14278;50.784;4.630;2023-04-03T15:20:54;10.10;98.20
26655;DHT22;14278;50.784;4.630;2023-04-03T15:23:22;10.10;99.90
26655;DHT22;14278;50.784;4.630;2023-04-03T15:25:52;10.40;99.90
26655;DHT22;14278;50.784;4.630;2023-04-03T15:28:28;10.50;99.90
26655;DHT22;14278;50.784;4.630;2023-04-03T15:30:56;10.40;99.90
26655;DHT22;14278;50.784;4.630;2023-04-03T15:33:22;10.30;99.70
26655;DHT22;14278;50.784;4.630;2023-04-03T15:35:48;10.40;99.90
26655;DHT22;14278;50.784;4.630;2023-04-03T15:38:14;10.50;99.90
26655;DHT22;14278;50.784;4.630;2023-04-03T15:40:40;10.40;99.90
26655;DHT22;14278;50.784;4.630;2023-04-03T15:43:07;10.50;99.90
26655;DHT22;14278;50.784;4.630;2023-04-03T15:45:34;10.60;99.90
26655;DHT22;14278;50.784;4.630;2023-04-03T15:48:02;10.70;99.90
26655;DHT22;14278;50.784;4.630;2023-04-03T15:50:28;10.50;99.90
26655;DHT22;14278;50.784;4.630;2023-04-03T15:52:54;10.50;99.90
26655;DHT22;14278;50.784;4.630;2023-04-03T15:55:31;10.50;99.90
26655;DHT22;14278;50.784;4.630;2023-04-03T15:57:57;10.20;99.90
26655;DHT22;14278;50.784;4.630;2023-04-03T16:00:24;10.40;99.90
26655;DHT22;14278;50.784;4.630;2023-04-03T16:02:58;10.70;99.90
26655;DHT22;14278;50.784;4.630;2023-04-03T16:05:25;10.50;99.90
26655;DHT22;14278;50.784;4.630;2023-04-03T16:07:51;10.60;99.90
26655;DHT22;14278;50.784;4.630;2023-04-03T16:10:18;10.30;99.90
26655;DHT22;14278;50.784;4.630;2023-04-03T16:12:44;10.30;99.90
26655;DHT22;14278;50.784;4.630;2023-04-03T16:15:11;10.40;99.90
26655;DHT22;14278;50.784;4.630;2023-04-03T16:17:38;10.40;99.90
26655;DHT22;14278;50.784;4.630;2023-04-03T16:20:07;10.30;99.90
26655;DHT22;14278;50.784;4.630;2023-04-03T16:22:36;10.20;99.90
26655;DHT22;14278;50.784;4.630;2023-04-03T16:25:04;10.30;99.90
26655;DHT22;14278;50.784;4.630;2023-04-03T16:27:32;10.30;99.90
26655;DHT22;14278;50.784;4.630;2023-04-03T16:30:15;10.40;99.90
26655;DHT22;14278;50.784;4.630;2023-04-03T16:32:45;10.60;99.90
26655;DHT22;14278;50.784;4.630;2023-04-03T16:35:14;10.40;99.90
26655;DHT22;14278;50.784;4.630;2023-04-03T16:37:42;10.60;99.90
26655;DHT22;14278;50.784;4.630;2023-04-03T16:40:11;10.20;99.90
26655;DHT22;14278;50.784;4.630;2023-04-03T16:42:40;10.10;99.90
26655;DHT22;14278;50.784;4.630;2023-04-03T16:45:07;10.10;99.90
26655;DHT22;14278;50.784;4.630;2023-04-03T16:47:33;10.30;99.90
26655;DHT22;14278;50.784;4.630;2023-04-03T16:49:59;10.10;99.90
26655;DHT22;14278;50.784;4.630;2023-04-03T16:52:27;10.30;99.90
26655;DHT22;14278;50.784;4.630;2023-04-03T16:54:53;10.10;99.90
26655;DHT22;14278;50.784;4.630;2023-04-03T16:57:22;10.20;99.90
26655;DHT22;14278;50.784;4.630;2023-04-03T16:59:49;10.10;99.90
26655;DHT22;14278;50.784;4.630;2023-04-03T17:02:15;9.90;99.90
26655;DHT22;14278;50.784;4.630;2023-04-03T17:04:41;9.80;99.90
26655;DHT22;14278;50.784;4.630;2023-04-03T17:07:07;9.70;99.90
26655;DHT22;14278;50.784;4.630;2023-04-03T17:09:33;10.00;99.90
26655;DHT22;14278;50.784;4.630;2023-04-03T17:12:00;9.80;99.90
26655;DHT22;14278;50.784;4.630;2023-04-03T17:14:26;9.90;99.90
26655;DHT22;14278;50.784;4.630;2023-04-03T17:16:52;10.00;99.90
26655;DHT22;14278;50.784;4.630;2023-04-03T17:19:20;9.90;99.90
26655;DHT22;14278;50.784;4.630;2023-04-03T17:21:48;9.70;99.90
26655;DHT22;14278;50.784;4.630;2023-04-03T17:24:14;9.50;99.90
26655;DHT22;14278;50.784;4.630;2023-04-03T17:26:41;9.50;99.90
26655;DHT22;14278;50.784;4.630;2023-04-03T17:29:07;9.40;99.90
26655;DHT22;14278;50.784;4.630;2023-04-03T17:31:33;9.20;99.90
26655;DHT22;14278;50.784;4.630;2023-04-03T17:34:00;9.10;99.90
26655;DHT22;14278;50.784;4.630;2023-04-03T17:36:28;9.30;99.90
26655;DHT22;14278;50.784;4.630;2023-04-03T17:38:54;9.30;99.90
26655;DHT22;14278;50.784;4.630;2023-04-03T17:41:20;9.20;99.90
26655;DHT22;14278;50.784;4.630;2023-04-03T17:43:45;9.00;99.90
26655;DHT22;14278;50.784;4.630;2023-04-03T17:46:17;9.10;99.90